sensor_id;sensor_type;location;lat;lon;timestamp;P1;durP1;ratioP1;P2;durP2;ratioP2
54307;SDS011;40208;39.778;2.710;2022-10-16T00:00:22;9.60;;;1.40;;
54307;SDS011;40208;39.778;2.710;2022-10-16T00:03:07;4.15;;;1.05;;
54307;SDS011;40208;39.778;2.710;2022-10-16T00:05:53;4.13;;;1.13;;
54307;SDS011;40208;39.778;2.710;2022-10-16T00:08:38;8.32;;;1.30;;
54307;SDS011;40208;39.778;2.710;2022-10-16T00:11:27;3.85;;;1.15;;
54307;SDS011;40208;39.778;2.710;2022-10-16T00:14:21;5.13;;;1.60;;
54307;SDS011;40208;39.778;2.710;2022-10-16T00:17:06;5.55;;;1.40;;
54307;SDS011;40208;39.778;2.710;2022-10-16T00:19:50;3.50;;;1.30;;
54307;SDS011;40208;39.778;2.710;2022-10-16T00:22:35;5.95;;;1.50;;
54307;SDS011;40208;39.778;2.710;2022-10-16T00:25:20;3.05;;;1.33;;
54307;SDS011;40208;39.778;2.710;2022-10-16T00:28:05;4.88;;;1.27;;
54307;SDS011;40208;39.778;2.710;2022-10-16T00:30:50;2.50;;;1.48;;
54307;SDS011;40208;39.778;2.710;2022-10-16T00:33:35;4.97;;;1.50;;
54307;SDS011;40208;39.778;2.710;2022-10-16T00:36:22;5.95;;;1.50;;
54307;SDS011;40208;39.778;2.710;2022-10-16T00:39:08;7.85;;;1.70;;
54307;SDS011;40208;39.778;2.710;2022-10-16T00:41:53;1.80;;;1.08;;
54307;SDS011;40208;39.778;2.710;2022-10-16T00:44:42;3.38;;;1.20;;
54307;SDS011;40208;39.778;2.710;2022-10-16T00:47:29;3.38;;;1.45;;
54307;SDS011;40208;39.778;2.710;2022-10-16T00:50:30;2.28;;;1.30;;
54307;SDS011;40208;39.778;2.710;2022-10-16T00:53:17;4.80;;;1.33;;
54307;SDS011;40208;39.778;2.710;2022-10-16T00:56:02;4.55;;;1.45;;
54307;SDS011;40208;39.778;2.710;2022-10-16T00:58:48;4.05;;;1.33;;
54307;SDS011;40208;39.778;2.710;2022-10-16T01:01:32;2.65;;;1.02;;
54307;SDS011;40208;39.778;2.710;2022-10-16T01:04:17;2.10;;;1.20;;
54307;SDS011;40208;39.778;2.710;2022-10-16T01:07:09;5.38;;;1.45;;
54307;SDS011;40208;39.778;2.710;2022-10-16T01:13:21;7.25;;;1.60;;
54307;SDS011;40208;39.778;2.710;2022-10-16T01:19:17;2.47;;;1.05;;
54307;SDS011;40208;39.778;2.710;2022-10-16T01:22:14;3.20;;;1.30;;
54307;SDS011;40208;39.778;2.710;2022-10-16T01:24:59;3.78;;;1.20;;
54307;SDS011;40208;39.778;2.710;2022-10-16T01:27:48;6.13;;;1.40;;
54307;SDS011;40208;39.778;2.710;2022-10-16T01:30:34;3.63;;;1.00;;
54307;SDS011;40208;39.778;2.710;2022-10-16T01:33:21;5.53;;;1.70;;
54307;SDS011;40208;39.778;2.710;2022-10-16T01:36:13;3.60;;;1.20;;
54307;SDS011;40208;39.778;2.710;2022-10-16T01:39:02;2.97;;;1.40;;
54307;SDS011;40208;39.778;2.710;2022-10-16T01:41:48;4.25;;;1.08;;
54307;SDS011;40208;39.778;2.710;2022-10-16T01:44:40;6.72;;;1.50;;
54307;SDS011;40208;39.778;2.710;2022-10-16T01:47:28;5.63;;;1.30;;
54307;SDS011;40208;39.778;2.710;2022-10-16T01:50:16;4.70;;;1.60;;
54307;SDS011;40208;39.778;2.710;2022-10-16T01:53:04;7.80;;;1.42;;
54307;SDS011;40208;39.778;2.710;2022-10-16T01:55:52;2.55;;;1.00;;
54307;SDS011;40208;39.778;2.710;2022-10-16T01:58:42;2.90;;;1.20;;
54307;SDS011;40208;39.778;2.710;2022-10-16T02:01:34;5.97;;;1.73;;
54307;SDS011;40208;39.778;2.710;2022-10-16T02:04:24;6.53;;;1.40;;
54307;SDS011;40208;39.778;2.710;2022-10-16T02:07:17;3.00;;;1.10;;
54307;SDS011;40208;39.778;2.710;2022-10-16T02:10:09;5.65;;;1.40;;
54307;SDS011;40208;39.778;2.710;2022-10-16T02:12:56;5.90;;;1.60;;
54307;SDS011;40208;39.778;2.710;2022-10-16T02:15:48;2.33;;;1.20;;
54307;SDS011;40208;39.778;2.710;2022-10-16T02:18:32;4.93;;;1.55;;
54307;SDS011;40208;39.778;2.710;2022-10-16T02:21:28;6.75;;;1.58;;
54307;SDS011;40208;39.778;2.710;2022-10-16T02:24:33;3.33;;;1.20;;
54307;SDS011;40208;39.778;2.710;2022-10-16T02:30:27;7.03;;;1.45;;
54307;SDS011;40208;39.778;2.710;2022-10-16T02:33:17;4.80;;;1.67;;
54307;SDS011;40208;39.778;2.710;2022-10-16T02:36:05;4.57;;;1.23;;
54307;SDS011;40208;39.778;2.710;2022-10-16T02:38:51;7.22;;;1.45;;
54307;SDS011;40208;39.778;2.710;2022-10-16T02:41:38;2.85;;;1.23;;
54307;SDS011;40208;39.778;2.710;2022-10-16T02:44:23;4.55;;;1.58;;
54307;SDS011;40208;39.778;2.710;2022-10-16T02:47:08;4.65;;;1.35;;
54307;SDS011;40208;39.778;2.710;2022-10-16T02:49:53;4.00;;;1.33;;
54307;SDS011;40208;39.778;2.710;2022-10-16T02:52:38;10.90;;;1.70;;
54307;SDS011;40208;39.778;2.710;2022-10-16T02:55:22;3.13;;;1.33;;
54307;SDS011;40208;39.778;2.710;2022-10-16T02:58:07;3.92;;;1.60;;
54307;SDS011;40208;39.778;2.710;2022-10-16T03:00:52;3.13;;;1.33;;
54307;SDS011;40208;39.778;2.710;2022-10-16T03:03:36;7.75;;;1.52;;
54307;SDS011;40208;39.778;2.710;2022-10-16T03:06:21;4.68;;;1.30;;
54307;SDS011;40208;39.778;2.710;2022-10-16T03:09:07;5.60;;;1.50;;
54307;SDS011;40208;39.778;2.710;2022-10-16T03:11:52;2.35;;;1.23;;
54307;SDS011;40208;39.778;2.710;2022-10-16T03:14:37;8.65;;;1.63;;
54307;SDS011;40208;39.778;2.710;2022-10-16T03:17:24;5.05;;;1.38;;
54307;SDS011;40208;39.778;2.710;2022-10-16T03:20:09;4.55;;;1.40;;
54307;SDS011;40208;39.778;2.710;2022-10-16T03:22:54;3.60;;;1.38;;
54307;SDS011;40208;39.778;2.710;2022-10-16T03:25:39;5.05;;;1.67;;
54307;SDS011;40208;39.778;2.710;2022-10-16T03:28:24;4.93;;;1.23;;
54307;SDS011;40208;39.778;2.710;2022-10-16T03:31:08;4.82;;;1.33;;
54307;SDS011;40208;39.778;2.710;2022-10-16T03:33:53;5.65;;;1.30;;
54307;SDS011;40208;39.778;2.710;2022-10-16T03:36:38;3.80;;;1.25;;
54307;SDS011;40208;39.778;2.710;2022-10-16T03:39:22;6.55;;;1.38;;
54307;SDS011;40208;39.778;2.710;2022-10-16T03:42:07;7.13;;;1.25;;
54307;SDS011;40208;39.778;2.710;2022-10-16T03:44:52;5.88;;;1.17;;
54307;SDS011;40208;39.778;2.710;2022-10-16T03:47:37;6.95;;;1.17;;
54307;SDS011;40208;39.778;2.710;2022-10-16T03:50:22;5.43;;;1.60;;
54307;SDS011;40208;39.778;2.710;2022-10-16T03:53:06;4.85;;;1.90;;
54307;SDS011;40208;39.778;2.710;2022-10-16T03:55:51;4.28;;;1.20;;
54307;SDS011;40208;39.778;2.710;2022-10-16T03:58:36;7.82;;;1.33;;
54307;SDS011;40208;39.778;2.710;2022-10-16T04:01:21;3.72;;;1.17;;
54307;SDS011;40208;39.778;2.710;2022-10-16T04:04:06;2.30;;;0.80;;
54307;SDS011;40208;39.778;2.710;2022-10-16T04:06:51;3.90;;;1.50;;
54307;SDS011;40208;39.778;2.710;2022-10-16T04:09:36;3.10;;;1.15;;
54307;SDS011;40208;39.778;2.710;2022-10-16T04:12:21;5.20;;;1.50;;
54307;SDS011;40208;39.778;2.710;2022-10-16T04:15:06;8.77;;;1.10;;
54307;SDS011;40208;39.778;2.710;2022-10-16T04:17:52;6.18;;;1.13;;
54307;SDS011;40208;39.778;2.710;2022-10-16T04:20:36;3.08;;;0.95;;
54307;SDS011;40208;39.778;2.710;2022-10-16T04:23:21;2.60;;;1.15;;
54307;SDS011;40208;39.778;2.710;2022-10-16T04:26:07;2.65;;;1.00;;
54307;SDS011;40208;39.778;2.710;2022-10-16T04:28:52;11.25;;;1.20;;
54307;SDS011;40208;39.778;2.710;2022-10-16T04:31:41;6.63;;;1.13;;
54307;SDS011;40208;39.778;2.710;2022-10-16T04:34:26;4.68;;;1.33;;
54307;SDS011;40208;39.778;2.710;2022-10-16T04:37:10;5.82;;;1.20;;
54307;SDS011;40208;39.778;2.710;2022-10-16T04:39:56;6.75;;;1.00;;
54307;SDS011;40208;39.778;2.710;2022-10-16T04:42:40;4.15;;;1.38;;
54307;SDS011;40208;39.778;2.710;2022-10-16T04:45:25;9.70;;;1.65;;
54307;SDS011;40208;39.778;2.710;2022-10-16T04:48:10;8.70;;;1.60;;
54307;SDS011;40208;39.778;2.710;2022-10-16T04:50:55;6.13;;;0.98;;
54307;SDS011;40208;39.778;2.710;2022-10-16T04:53:40;7.80;;;1.45;;
54307;SDS011;40208;39.778;2.710;2022-10-16T04:56:25;2.70;;;1.27;;
54307;SDS011;40208;39.778;2.710;2022-10-16T04:59:10;6.47;;;1.70;;
54307;SDS011;40208;39.778;2.710;2022-10-16T05:01:55;7.25;;;1.55;;
54307;SDS011;40208;39.778;2.710;2022-10-16T05:04:40;6.32;;;1.70;;
54307;SDS011;40208;39.778;2.710;2022-10-16T05:07:25;7.13;;;2.10;;
54307;SDS011;40208;39.778;2.710;2022-10-16T05:10:10;4.50;;;1.67;;
54307;SDS011;40208;39.778;2.710;2022-10-16T05:12:55;2.10;;;1.20;;
54307;SDS011;40208;39.778;2.710;2022-10-16T05:15:40;7.18;;;1.50;;
54307;SDS011;40208;39.778;2.710;2022-10-16T05:18:25;4.57;;;1.52;;
54307;SDS011;40208;39.778;2.710;2022-10-16T05:21:10;7.10;;;1.75;;
54307;SDS011;40208;39.778;2.710;2022-10-16T05:23:58;6.03;;;1.33;;
54307;SDS011;40208;39.778;2.710;2022-10-16T05:26:43;3.28;;;1.13;;
54307;SDS011;40208;39.778;2.710;2022-10-16T05:29:28;5.43;;;1.38;;
54307;SDS011;40208;39.778;2.710;2022-10-16T05:32:13;4.55;;;1.73;;
54307;SDS011;40208;39.778;2.710;2022-10-16T05:34:59;4.65;;;1.45;;
54307;SDS011;40208;39.778;2.710;2022-10-16T05:37:44;4.57;;;1.13;;
54307;SDS011;40208;39.778;2.710;2022-10-16T05:40:29;4.72;;;1.50;;
54307;SDS011;40208;39.778;2.710;2022-10-16T05:43:14;4.55;;;1.52;;
54307;SDS011;40208;39.778;2.710;2022-10-16T05:46:01;7.82;;;1.48;;
54307;SDS011;40208;39.778;2.710;2022-10-16T05:48:47;4.85;;;1.40;;
54307;SDS011;40208;39.778;2.710;2022-10-16T05:51:32;4.57;;;1.60;;
54307;SDS011;40208;39.778;2.710;2022-10-16T05:54:17;11.30;;;4.35;;
54307;SDS011;40208;39.778;2.710;2022-10-16T05:57:02;11.10;;;3.50;;
54307;SDS011;40208;39.778;2.710;2022-10-16T05:59:47;4.75;;;2.08;;
54307;SDS011;40208;39.778;2.710;2022-10-16T06:02:32;6.28;;;2.00;;
54307;SDS011;40208;39.778;2.710;2022-10-16T06:05:17;6.20;;;2.38;;
54307;SDS011;40208;39.778;2.710;2022-10-16T06:08:02;9.68;;;2.13;;
54307;SDS011;40208;39.778;2.710;2022-10-16T06:10:47;11.75;;;3.15;;
54307;SDS011;40208;39.778;2.710;2022-10-16T06:13:32;9.10;;;2.10;;
54307;SDS011;40208;39.778;2.710;2022-10-16T06:16:17;3.70;;;1.45;;
54307;SDS011;40208;39.778;2.710;2022-10-16T06:19:02;9.68;;;5.03;;
54307;SDS011;40208;39.778;2.710;2022-10-16T06:21:50;9.77;;;6.13;;
54307;SDS011;40208;39.778;2.710;2022-10-16T06:24:35;10.77;;;5.95;;
54307;SDS011;40208;39.778;2.710;2022-10-16T06:27:20;11.63;;;5.55;;
54307;SDS011;40208;39.778;2.710;2022-10-16T06:30:05;10.98;;;4.00;;
54307;SDS011;40208;39.778;2.710;2022-10-16T06:32:51;10.68;;;4.03;;
54307;SDS011;40208;39.778;2.710;2022-10-16T06:35:36;11.27;;;4.13;;
54307;SDS011;40208;39.778;2.710;2022-10-16T06:38:21;16.92;;;6.57;;
54307;SDS011;40208;39.778;2.710;2022-10-16T06:41:07;19.10;;;5.55;;
54307;SDS011;40208;39.778;2.710;2022-10-16T06:43:54;14.90;;;4.68;;
54307;SDS011;40208;39.778;2.710;2022-10-16T06:46:39;18.05;;;4.75;;
54307;SDS011;40208;39.778;2.710;2022-10-16T06:49:24;10.57;;;3.63;;
54307;SDS011;40208;39.778;2.710;2022-10-16T06:52:09;11.38;;;3.85;;
54307;SDS011;40208;39.778;2.710;2022-10-16T06:54:54;18.30;;;4.95;;
54307;SDS011;40208;39.778;2.710;2022-10-16T06:57:39;15.10;;;5.47;;
54307;SDS011;40208;39.778;2.710;2022-10-16T07:00:24;17.92;;;5.93;;
54307;SDS011;40208;39.778;2.710;2022-10-16T07:03:09;13.30;;;5.13;;
54307;SDS011;40208;39.778;2.710;2022-10-16T07:05:54;19.48;;;6.53;;
54307;SDS011;40208;39.778;2.710;2022-10-16T07:08:40;23.48;;;7.72;;
54307;SDS011;40208;39.778;2.710;2022-10-16T07:11:26;19.38;;;9.85;;
54307;SDS011;40208;39.778;2.710;2022-10-16T07:14:18;28.58;;;13.60;;
54307;SDS011;40208;39.778;2.710;2022-10-16T07:17:05;24.90;;;11.77;;
54307;SDS011;40208;39.778;2.710;2022-10-16T07:19:49;28.42;;;12.05;;
54307;SDS011;40208;39.778;2.710;2022-10-16T07:22:37;25.27;;;10.40;;
54307;SDS011;40208;39.778;2.710;2022-10-16T07:25:22;31.85;;;11.25;;
54307;SDS011;40208;39.778;2.710;2022-10-16T07:28:07;38.78;;;17.45;;
54307;SDS011;40208;39.778;2.710;2022-10-16T07:30:51;35.25;;;15.60;;
54307;SDS011;40208;39.778;2.710;2022-10-16T07:33:37;32.70;;;16.23;;
54307;SDS011;40208;39.778;2.710;2022-10-16T07:36:23;32.40;;;15.63;;
54307;SDS011;40208;39.778;2.710;2022-10-16T07:39:08;29.70;;;14.23;;
54307;SDS011;40208;39.778;2.710;2022-10-16T07:41:53;30.42;;;9.95;;
54307;SDS011;40208;39.778;2.710;2022-10-16T07:44:38;23.15;;;10.90;;
54307;SDS011;40208;39.778;2.710;2022-10-16T07:47:24;20.73;;;9.45;;
54307;SDS011;40208;39.778;2.710;2022-10-16T07:50:09;21.17;;;9.43;;
54307;SDS011;40208;39.778;2.710;2022-10-16T07:52:54;20.13;;;8.93;;
54307;SDS011;40208;39.778;2.710;2022-10-16T07:55:39;21.00;;;8.80;;
54307;SDS011;40208;39.778;2.710;2022-10-16T07:58:24;19.00;;;8.68;;
54307;SDS011;40208;39.778;2.710;2022-10-16T08:01:10;23.02;;;10.07;;
54307;SDS011;40208;39.778;2.710;2022-10-16T08:03:57;29.27;;;12.00;;
54307;SDS011;40208;39.778;2.710;2022-10-16T08:06:42;21.30;;;11.80;;
54307;SDS011;40208;39.778;2.710;2022-10-16T08:09:27;24.98;;;11.10;;
54307;SDS011;40208;39.778;2.710;2022-10-16T08:12:12;33.92;;;15.02;;
54307;SDS011;40208;39.778;2.710;2022-10-16T08:14:57;28.10;;;13.95;;
54307;SDS011;40208;39.778;2.710;2022-10-16T08:17:42;24.67;;;13.98;;
54307;SDS011;40208;39.778;2.710;2022-10-16T08:20:27;29.02;;;14.25;;
54307;SDS011;40208;39.778;2.710;2022-10-16T08:23:13;25.20;;;13.38;;
54307;SDS011;40208;39.778;2.710;2022-10-16T08:26:04;25.25;;;13.32;;
54307;SDS011;40208;39.778;2.710;2022-10-16T08:28:50;31.55;;;13.98;;
54307;SDS011;40208;39.778;2.710;2022-10-16T08:31:36;29.25;;;14.60;;
54307;SDS011;40208;39.778;2.710;2022-10-16T08:34:21;31.35;;;14.90;;
54307;SDS011;40208;39.778;2.710;2022-10-16T08:37:05;29.02;;;14.55;;
54307;SDS011;40208;39.778;2.710;2022-10-16T08:39:52;29.88;;;14.30;;
54307;SDS011;40208;39.778;2.710;2022-10-16T08:51:35;25.15;;;13.13;;
54307;SDS011;40208;39.778;2.710;2022-10-16T08:54:29;29.73;;;14.10;;
54307;SDS011;40208;39.778;2.710;2022-10-16T08:57:20;31.98;;;16.35;;
54307;SDS011;40208;39.778;2.710;2022-10-16T09:00:11;31.17;;;16.80;;
54307;SDS011;40208;39.778;2.710;2022-10-16T09:12:48;49.85;;;25.33;;
54307;SDS011;40208;39.778;2.710;2022-10-16T09:19:19;34.90;;;21.52;;
54307;SDS011;40208;39.778;2.710;2022-10-16T09:22:14;48.42;;;21.55;;
54307;SDS011;40208;39.778;2.710;2022-10-16T09:25:01;37.65;;;19.23;;
54307;SDS011;40208;39.778;2.710;2022-10-16T09:27:57;38.25;;;18.92;;
54307;SDS011;40208;39.778;2.710;2022-10-16T09:30:41;36.60;;;16.48;;
54307;SDS011;40208;39.778;2.710;2022-10-16T09:33:37;30.25;;;14.57;;
54307;SDS011;40208;39.778;2.710;2022-10-16T09:36:25;27.48;;;13.60;;
54307;SDS011;40208;39.778;2.710;2022-10-16T09:39:12;37.08;;;14.18;;
54307;SDS011;40208;39.778;2.710;2022-10-16T09:41:57;33.13;;;10.00;;
54307;SDS011;40208;39.778;2.710;2022-10-16T09:44:42;29.15;;;9.07;;
54307;SDS011;40208;39.778;2.710;2022-10-16T09:47:35;19.42;;;7.88;;
54307;SDS011;40208;39.778;2.710;2022-10-16T09:50:25;20.95;;;7.20;;
54307;SDS011;40208;39.778;2.710;2022-10-16T09:53:12;14.07;;;5.85;;
54307;SDS011;40208;39.778;2.710;2022-10-16T09:55:59;29.35;;;10.20;;
54307;SDS011;40208;39.778;2.710;2022-10-16T09:58:49;23.35;;;8.13;;
54307;SDS011;40208;39.778;2.710;2022-10-16T10:01:36;38.50;;;12.80;;
54307;SDS011;40208;39.778;2.710;2022-10-16T10:04:38;58.50;;;20.92;;
54307;SDS011;40208;39.778;2.710;2022-10-16T10:07:27;33.47;;;12.80;;
54307;SDS011;40208;39.778;2.710;2022-10-16T10:10:20;101.10;;;33.10;;
54307;SDS011;40208;39.778;2.710;2022-10-16T10:13:20;101.60;;;35.17;;
54307;SDS011;40208;39.778;2.710;2022-10-16T10:16:07;81.28;;;26.55;;
54307;SDS011;40208;39.778;2.710;2022-10-16T10:18:57;117.07;;;36.30;;
54307;SDS011;40208;39.778;2.710;2022-10-16T10:21:43;111.28;;;35.28;;
54307;SDS011;40208;39.778;2.710;2022-10-16T10:24:28;150.63;;;48.78;;
54307;SDS011;40208;39.778;2.710;2022-10-16T10:27:14;120.28;;;40.13;;
54307;SDS011;40208;39.778;2.710;2022-10-16T10:39:13;53.92;;;19.50;;
54307;SDS011;40208;39.778;2.710;2022-10-16T10:48:06;17.10;;;4.95;;
54307;SDS011;40208;39.778;2.710;2022-10-16T10:51:22;21.10;;;5.47;;
54307;SDS011;40208;39.778;2.710;2022-10-16T10:54:32;8.65;;;3.60;;
54307;SDS011;40208;39.778;2.710;2022-10-16T10:57:38;16.67;;;4.60;;
54307;SDS011;40208;39.778;2.710;2022-10-16T11:06:52;7.72;;;2.95;;
54307;SDS011;40208;39.778;2.710;2022-10-16T11:09:45;8.55;;;2.40;;
54307;SDS011;40208;39.778;2.710;2022-10-16T11:12:38;5.18;;;1.90;;
54307;SDS011;40208;39.778;2.710;2022-10-16T11:15:45;12.60;;;2.85;;
54307;SDS011;40208;39.778;2.710;2022-10-16T11:18:45;7.13;;;2.28;;
54307;SDS011;40208;39.778;2.710;2022-10-16T11:21:39;7.78;;;1.80;;
54307;SDS011;40208;39.778;2.710;2022-10-16T11:27:38;10.70;;;2.15;;
54307;SDS011;40208;39.778;2.710;2022-10-16T11:30:30;10.77;;;2.42;;
54307;SDS011;40208;39.778;2.710;2022-10-16T11:39:00;5.88;;;1.85;;
54307;SDS011;40208;39.778;2.710;2022-10-16T11:41:53;6.53;;;1.80;;
54307;SDS011;40208;39.778;2.710;2022-10-16T11:44:45;4.90;;;2.05;;
54307;SDS011;40208;39.778;2.710;2022-10-16T11:51:11;17.55;;;2.05;;
54307;SDS011;40208;39.778;2.710;2022-10-16T11:57:26;24.17;;;2.83;;
54307;SDS011;40208;39.778;2.710;2022-10-16T12:00:18;6.63;;;1.63;;
54307;SDS011;40208;39.778;2.710;2022-10-16T12:09:36;6.07;;;2.28;;
54307;SDS011;40208;39.778;2.710;2022-10-16T12:15:24;8.70;;;2.45;;
54307;SDS011;40208;39.778;2.710;2022-10-16T12:18:23;6.45;;;1.60;;
54307;SDS011;40208;39.778;2.710;2022-10-16T12:21:09;6.25;;;1.88;;
54307;SDS011;40208;39.778;2.710;2022-10-16T12:23:58;6.47;;;1.63;;
54307;SDS011;40208;39.778;2.710;2022-10-16T12:26:47;13.43;;;2.78;;
54307;SDS011;40208;39.778;2.710;2022-10-16T12:32:34;8.13;;;2.15;;
54307;SDS011;40208;39.778;2.710;2022-10-16T12:35:26;6.70;;;1.70;;
54307;SDS011;40208;39.778;2.710;2022-10-16T12:38:21;8.63;;;1.92;;
54307;SDS011;40208;39.778;2.710;2022-10-16T12:41:10;5.25;;;1.90;;
54307;SDS011;40208;39.778;2.710;2022-10-16T12:43:58;6.30;;;1.70;;
54307;SDS011;40208;39.778;2.710;2022-10-16T12:46:46;7.88;;;1.60;;
54307;SDS011;40208;39.778;2.710;2022-10-16T12:49:34;3.88;;;1.77;;
54307;SDS011;40208;39.778;2.710;2022-10-16T12:55:17;5.80;;;1.92;;
54307;SDS011;40208;39.778;2.710;2022-10-16T13:01:20;4.25;;;1.45;;
54307;SDS011;40208;39.778;2.710;2022-10-16T13:28:34;5.45;;;1.75;;
54307;SDS011;40208;39.778;2.710;2022-10-16T13:31:22;12.85;;;2.13;;
54307;SDS011;40208;39.778;2.710;2022-10-16T13:34:11;5.43;;;2.03;;
54307;SDS011;40208;39.778;2.710;2022-10-16T13:37:00;7.95;;;2.05;;
54307;SDS011;40208;39.778;2.710;2022-10-16T13:39:44;6.95;;;1.92;;
54307;SDS011;40208;39.778;2.710;2022-10-16T13:42:31;7.82;;;2.20;;
54307;SDS011;40208;39.778;2.710;2022-10-16T13:45:21;7.20;;;2.25;;
54307;SDS011;40208;39.778;2.710;2022-10-16T13:48:09;10.65;;;2.08;;
54307;SDS011;40208;39.778;2.710;2022-10-16T13:51:02;5.90;;;1.60;;
54307;SDS011;40208;39.778;2.710;2022-10-16T13:53:58;7.68;;;1.75;;
54307;SDS011;40208;39.778;2.710;2022-10-16T13:56:44;7.40;;;1.85;;
54307;SDS011;40208;39.778;2.710;2022-10-16T13:59:33;7.20;;;2.40;;
54307;SDS011;40208;39.778;2.710;2022-10-16T14:05:13;6.25;;;1.90;;
54307;SDS011;40208;39.778;2.710;2022-10-16T14:07:59;7.25;;;2.13;;
54307;SDS011;40208;39.778;2.710;2022-10-16T14:10:49;10.48;;;2.17;;
54307;SDS011;40208;39.778;2.710;2022-10-16T14:13:38;6.43;;;1.88;;
54307;SDS011;40208;39.778;2.710;2022-10-16T14:16:29;5.22;;;1.85;;
54307;SDS011;40208;39.778;2.710;2022-10-16T14:19:23;8.65;;;2.08;;
54307;SDS011;40208;39.778;2.710;2022-10-16T14:34:23;4.55;;;2.15;;
54307;SDS011;40208;39.778;2.710;2022-10-16T14:37:27;5.35;;;2.20;;
54307;SDS011;40208;39.778;2.710;2022-10-16T14:40:14;6.82;;;2.28;;
54307;SDS011;40208;39.778;2.710;2022-10-16T14:43:03;11.30;;;2.40;;
54307;SDS011;40208;39.778;2.710;2022-10-16T14:45:53;6.93;;;2.45;;
54307;SDS011;40208;39.778;2.710;2022-10-16T14:48:43;8.27;;;2.50;;
54307;SDS011;40208;39.778;2.710;2022-10-16T14:51:31;6.82;;;2.13;;
54307;SDS011;40208;39.778;2.710;2022-10-16T14:54:16;6.60;;;2.45;;
54307;SDS011;40208;39.778;2.710;2022-10-16T14:57:02;4.78;;;1.98;;
54307;SDS011;40208;39.778;2.710;2022-10-16T14:59:47;8.93;;;2.40;;
54307;SDS011;40208;39.778;2.710;2022-10-16T15:02:35;5.90;;;2.10;;
54307;SDS011;40208;39.778;2.710;2022-10-16T15:05:24;4.40;;;2.00;;
54307;SDS011;40208;39.778;2.710;2022-10-16T15:08:10;8.88;;;2.20;;
54307;SDS011;40208;39.778;2.710;2022-10-16T15:10:56;6.60;;;2.55;;
54307;SDS011;40208;39.778;2.710;2022-10-16T15:13:41;8.73;;;2.42;;
54307;SDS011;40208;39.778;2.710;2022-10-16T15:16:26;6.68;;;2.33;;
54307;SDS011;40208;39.778;2.710;2022-10-16T15:19:11;6.70;;;2.42;;
54307;SDS011;40208;39.778;2.710;2022-10-16T15:21:56;9.88;;;2.25;;
54307;SDS011;40208;39.778;2.710;2022-10-16T15:24:41;8.20;;;2.13;;
54307;SDS011;40208;39.778;2.710;2022-10-16T15:27:26;5.75;;;1.80;;
54307;SDS011;40208;39.778;2.710;2022-10-16T15:30:11;4.78;;;2.33;;
54307;SDS011;40208;39.778;2.710;2022-10-16T15:32:56;5.95;;;2.05;;
54307;SDS011;40208;39.778;2.710;2022-10-16T15:35:41;7.40;;;2.25;;
54307;SDS011;40208;39.778;2.710;2022-10-16T15:38:27;4.72;;;2.00;;
54307;SDS011;40208;39.778;2.710;2022-10-16T15:41:12;10.23;;;2.10;;
54307;SDS011;40208;39.778;2.710;2022-10-16T15:43:57;7.75;;;1.98;;
54307;SDS011;40208;39.778;2.710;2022-10-16T15:46:42;6.57;;;2.40;;
54307;SDS011;40208;39.778;2.710;2022-10-16T15:49:28;11.77;;;2.40;;
54307;SDS011;40208;39.778;2.710;2022-10-16T15:52:13;8.38;;;3.00;;
54307;SDS011;40208;39.778;2.710;2022-10-16T15:54:58;6.65;;;2.55;;
54307;SDS011;40208;39.778;2.710;2022-10-16T15:57:43;7.93;;;2.38;;
54307;SDS011;40208;39.778;2.710;2022-10-16T16:00:29;11.15;;;2.47;;
54307;SDS011;40208;39.778;2.710;2022-10-16T16:03:14;6.78;;;2.40;;
54307;SDS011;40208;39.778;2.710;2022-10-16T16:06:03;4.40;;;1.85;;
54307;SDS011;40208;39.778;2.710;2022-10-16T16:08:49;8.65;;;2.55;;
54307;SDS011;40208;39.778;2.710;2022-10-16T16:11:35;5.50;;;1.90;;
54307;SDS011;40208;39.778;2.710;2022-10-16T16:14:22;7.43;;;2.72;;
54307;SDS011;40208;39.778;2.710;2022-10-16T16:17:09;8.57;;;2.28;;
54307;SDS011;40208;39.778;2.710;2022-10-16T16:19:54;21.10;;;2.83;;
54307;SDS011;40208;39.778;2.710;2022-10-16T16:22:39;5.88;;;1.98;;
54307;SDS011;40208;39.778;2.710;2022-10-16T16:25:24;9.35;;;2.25;;
54307;SDS011;40208;39.778;2.710;2022-10-16T16:28:09;6.05;;;2.10;;
54307;SDS011;40208;39.778;2.710;2022-10-16T16:30:55;11.88;;;2.38;;
54307;SDS011;40208;39.778;2.710;2022-10-16T16:33:40;14.40;;;2.60;;
54307;SDS011;40208;39.778;2.710;2022-10-16T16:36:25;5.97;;;2.38;;
54307;SDS011;40208;39.778;2.710;2022-10-16T16:39:10;6.45;;;1.73;;
54307;SDS011;40208;39.778;2.710;2022-10-16T16:41:55;7.70;;;2.00;;
54307;SDS011;40208;39.778;2.710;2022-10-16T16:44:42;8.80;;;2.45;;
54307;SDS011;40208;39.778;2.710;2022-10-16T16:47:27;8.10;;;2.17;;
54307;SDS011;40208;39.778;2.710;2022-10-16T16:50:12;12.00;;;3.10;;
54307;SDS011;40208;39.778;2.710;2022-10-16T16:52:57;8.90;;;2.47;;
54307;SDS011;40208;39.778;2.710;2022-10-16T16:55:42;11.85;;;2.60;;
54307;SDS011;40208;39.778;2.710;2022-10-16T16:58:27;9.05;;;2.75;;
54307;SDS011;40208;39.778;2.710;2022-10-16T17:01:12;6.55;;;2.03;;
54307;SDS011;40208;39.778;2.710;2022-10-16T17:03:57;5.93;;;2.63;;
54307;SDS011;40208;39.778;2.710;2022-10-16T17:06:43;4.85;;;2.40;;
54307;SDS011;40208;39.778;2.710;2022-10-16T17:09:28;13.40;;;3.47;;
54307;SDS011;40208;39.778;2.710;2022-10-16T17:12:15;12.52;;;3.25;;
54307;SDS011;40208;39.778;2.710;2022-10-16T17:15:00;9.07;;;3.13;;
54307;SDS011;40208;39.778;2.710;2022-10-16T17:17:46;10.93;;;3.40;;
54307;SDS011;40208;39.778;2.710;2022-10-16T17:20:31;12.57;;;3.97;;
54307;SDS011;40208;39.778;2.710;2022-10-16T17:23:19;10.60;;;2.67;;
54307;SDS011;40208;39.778;2.710;2022-10-16T17:26:14;9.65;;;2.72;;
54307;SDS011;40208;39.778;2.710;2022-10-16T17:29:00;7.10;;;2.40;;
54307;SDS011;40208;39.778;2.710;2022-10-16T17:31:45;10.60;;;2.47;;
54307;SDS011;40208;39.778;2.710;2022-10-16T17:34:33;13.68;;;2.78;;
54307;SDS011;40208;39.778;2.710;2022-10-16T17:37:19;8.05;;;3.22;;
54307;SDS011;40208;39.778;2.710;2022-10-16T17:40:05;7.57;;;3.38;;
54307;SDS011;40208;39.778;2.710;2022-10-16T17:42:50;8.88;;;2.75;;
54307;SDS011;40208;39.778;2.710;2022-10-16T17:45:36;11.13;;;3.60;;
54307;SDS011;40208;39.778;2.710;2022-10-16T17:48:21;9.77;;;3.30;;
54307;SDS011;40208;39.778;2.710;2022-10-16T17:51:08;11.65;;;4.93;;
54307;SDS011;40208;39.778;2.710;2022-10-16T17:53:56;19.23;;;4.68;;
54307;SDS011;40208;39.778;2.710;2022-10-16T17:56:42;18.52;;;4.97;;
54307;SDS011;40208;39.778;2.710;2022-10-16T17:59:27;14.05;;;5.20;;
54307;SDS011;40208;39.778;2.710;2022-10-16T18:02:12;14.07;;;4.82;;
54307;SDS011;40208;39.778;2.710;2022-10-16T18:04:58;14.48;;;4.60;;
54307;SDS011;40208;39.778;2.710;2022-10-16T18:07:44;10.32;;;4.20;;
54307;SDS011;40208;39.778;2.710;2022-10-16T18:10:28;10.02;;;4.68;;
54307;SDS011;40208;39.778;2.710;2022-10-16T18:13:14;13.68;;;4.47;;
54307;SDS011;40208;39.778;2.710;2022-10-16T18:16:04;18.92;;;4.15;;
54307;SDS011;40208;39.778;2.710;2022-10-16T18:18:53;12.65;;;4.63;;
54307;SDS011;40208;39.778;2.710;2022-10-16T18:21:40;10.98;;;4.45;;
54307;SDS011;40208;39.778;2.710;2022-10-16T18:24:25;16.38;;;5.40;;
54307;SDS011;40208;39.778;2.710;2022-10-16T18:27:10;18.15;;;4.80;;
54307;SDS011;40208;39.778;2.710;2022-10-16T18:29:55;14.57;;;5.28;;
54307;SDS011;40208;39.778;2.710;2022-10-16T18:32:41;15.13;;;4.97;;
54307;SDS011;40208;39.778;2.710;2022-10-16T18:35:26;14.15;;;4.88;;
54307;SDS011;40208;39.778;2.710;2022-10-16T18:38:11;11.40;;;5.10;;
54307;SDS011;40208;39.778;2.710;2022-10-16T18:40:56;10.60;;;5.18;;
54307;SDS011;40208;39.778;2.710;2022-10-16T18:43:41;12.65;;;4.82;;
54307;SDS011;40208;39.778;2.710;2022-10-16T18:46:26;15.27;;;4.57;;